sensor_id;sensor_type;location;lat;lon;timestamp;P1;durP1;ratioP1;P2;durP2;ratioP2
18391;SDS011;9322;50.932;5.318;2022-09-03T00:01:14;6.10;;;1.65;;
18391;SDS011;9322;50.932;5.318;2022-09-03T00:03:50;2.00;;;1.40;;
18391;SDS011;9322;50.932;5.318;2022-09-03T00:06:29;3.97;;;1.20;;
18391;SDS011;9322;50.932;5.318;2022-09-03T00:14:24;2.35;;;1.58;;
18391;SDS011;9322;50.932;5.318;2022-09-03T00:17:14;6.47;;;1.52;;
18391;SDS011;9322;50.932;5.318;2022-09-03T00:20:32;3.95;;;1.60;;
18391;SDS011;9322;50.932;5.318;2022-09-03T00:22:53;2.55;;;1.30;;
18391;SDS011;9322;50.932;5.318;2022-09-03T00:25:23;1.50;;;1.20;;
18391;SDS011;9322;50.932;5.318;2022-09-03T00:27:52;5.05;;;1.40;;
18391;SDS011;9322;50.932;5.318;2022-09-03T00:30:20;3.45;;;1.20;;
18391;SDS011;9322;50.932;5.318;2022-09-03T00:32:53;2.03;;;1.20;;
18391;SDS011;9322;50.932;5.318;2022-09-03T00:35:43;5.47;;;1.63;;
18391;SDS011;9322;50.932;5.318;2022-09-03T00:38:13;2.25;;;1.45;;
18391;SDS011;9322;50.932;5.318;2022-09-03T00:48:31;7.90;;;1.60;;
18391;SDS011;9322;50.932;5.318;2022-09-03T00:51:16;2.72;;;1.45;;
18391;SDS011;9322;50.932;5.318;2022-09-03T00:53:58;5.25;;;1.60;;
18391;SDS011;9322;50.932;5.318;2022-09-03T00:59:25;4.07;;;1.40;;
18391;SDS011;9322;50.932;5.318;2022-09-03T01:02:06;4.43;;;1.60;;
18391;SDS011;9322;50.932;5.318;2022-09-03T01:04:49;4.70;;;1.55;;
18391;SDS011;9322;50.932;5.318;2022-09-03T01:13:30;4.35;;;1.70;;
18391;SDS011;9322;50.932;5.318;2022-09-03T01:16:03;2.83;;;1.73;;
18391;SDS011;9322;50.932;5.318;2022-09-03T01:24:11;9.15;;;1.80;;
18391;SDS011;9322;50.932;5.318;2022-09-03T01:27:08;6.47;;;1.70;;
18391;SDS011;9322;50.932;5.318;2022-09-03T01:35:07;3.55;;;1.70;;
18391;SDS011;9322;50.932;5.318;2022-09-03T01:44:04;5.38;;;1.75;;
18391;SDS011;9322;50.932;5.318;2022-09-03T01:46:36;3.63;;;1.60;;
18391;SDS011;9322;50.932;5.318;2022-09-03T01:49:23;3.28;;;1.63;;
18391;SDS011;9322;50.932;5.318;2022-09-03T01:52:01;5.40;;;1.52;;
18391;SDS011;9322;50.932;5.318;2022-09-03T01:57:34;7.38;;;1.90;;
18391;SDS011;9322;50.932;5.318;2022-09-03T02:00:17;2.72;;;1.40;;
18391;SDS011;9322;50.932;5.318;2022-09-03T02:02:50;1.70;;;1.38;;
18391;SDS011;9322;50.932;5.318;2022-09-03T02:05:18;4.43;;;1.60;;
18391;SDS011;9322;50.932;5.318;2022-09-03T02:07:55;3.92;;;1.80;;
18391;SDS011;9322;50.932;5.318;2022-09-03T02:10:32;4.68;;;1.65;;
18391;SDS011;9322;50.932;5.318;2022-09-03T02:13:12;4.00;;;1.55;;
18391;SDS011;9322;50.932;5.318;2022-09-03T02:15:59;4.78;;;1.67;;
18391;SDS011;9322;50.932;5.318;2022-09-03T02:18:32;3.15;;;1.33;;
18391;SDS011;9322;50.932;5.318;2022-09-03T02:21:02;2.42;;;1.35;;
18391;SDS011;9322;50.932;5.318;2022-09-03T02:23:29;4.63;;;1.67;;
18391;SDS011;9322;50.932;5.318;2022-09-03T02:25:56;4.32;;;1.30;;
18391;SDS011;9322;50.932;5.318;2022-09-03T02:28:27;2.28;;;1.23;;
18391;SDS011;9322;50.932;5.318;2022-09-03T02:30:54;2.75;;;1.25;;
18391;SDS011;9322;50.932;5.318;2022-09-03T02:33:20;2.78;;;1.50;;
18391;SDS011;9322;50.932;5.318;2022-09-03T02:35:47;4.60;;;1.50;;
18391;SDS011;9322;50.932;5.318;2022-09-03T02:38:17;2.70;;;1.30;;
18391;SDS011;9322;50.932;5.318;2022-09-03T02:40:45;5.40;;;1.63;;
18391;SDS011;9322;50.932;5.318;2022-09-03T02:43:15;3.22;;;1.20;;
18391;SDS011;9322;50.932;5.318;2022-09-03T02:45:47;6.32;;;1.50;;
18391;SDS011;9322;50.932;5.318;2022-09-03T02:48:18;6.28;;;1.83;;
18391;SDS011;9322;50.932;5.318;2022-09-03T02:50:46;2.85;;;1.60;;
18391;SDS011;9322;50.932;5.318;2022-09-03T02:53:12;3.75;;;1.48;;
18391;SDS011;9322;50.932;5.318;2022-09-03T02:55:38;6.07;;;1.80;;
18391;SDS011;9322;50.932;5.318;2022-09-03T02:58:04;3.53;;;1.52;;
18391;SDS011;9322;50.932;5.318;2022-09-03T03:00:33;7.63;;;1.67;;
18391;SDS011;9322;50.932;5.318;2022-09-03T03:03:00;4.35;;;1.20;;
18391;SDS011;9322;50.932;5.318;2022-09-03T03:05:43;3.97;;;1.48;;
18391;SDS011;9322;50.932;5.318;2022-09-03T03:08:12;3.75;;;1.40;;
18391;SDS011;9322;50.932;5.318;2022-09-03T03:10:40;8.38;;;1.80;;
18391;SDS011;9322;50.932;5.318;2022-09-03T03:13:09;4.35;;;1.40;;
18391;SDS011;9322;50.932;5.318;2022-09-03T03:15:34;3.10;;;1.60;;
18391;SDS011;9322;50.932;5.318;2022-09-03T03:18:00;2.42;;;1.50;;
18391;SDS011;9322;50.932;5.318;2022-09-03T03:20:26;3.60;;;1.50;;
18391;SDS011;9322;50.932;5.318;2022-09-03T03:22:52;2.67;;;1.35;;
18391;SDS011;9322;50.932;5.318;2022-09-03T03:25:18;3.55;;;1.60;;
18391;SDS011;9322;50.932;5.318;2022-09-03T03:27:43;7.05;;;1.67;;
18391;SDS011;9322;50.932;5.318;2022-09-03T03:30:09;4.50;;;1.63;;
18391;SDS011;9322;50.932;5.318;2022-09-03T03:32:36;2.57;;;1.40;;
18391;SDS011;9322;50.932;5.318;2022-09-03T03:35:02;2.88;;;1.40;;
18391;SDS011;9322;50.932;5.318;2022-09-03T03:37:29;5.05;;;1.70;;
18391;SDS011;9322;50.932;5.318;2022-09-03T03:39:55;2.90;;;1.52;;
18391;SDS011;9322;50.932;5.318;2022-09-03T03:42:21;6.00;;;1.60;;
18391;SDS011;9322;50.932;5.318;2022-09-03T03:44:46;2.53;;;1.57;;
18391;SDS011;9322;50.932;5.318;2022-09-03T03:47:12;3.90;;;1.50;;
18391;SDS011;9322;50.932;5.318;2022-09-03T03:49:41;5.63;;;1.63;;
18391;SDS011;9322;50.932;5.318;2022-09-03T03:52:09;3.78;;;1.85;;
18391;SDS011;9322;50.932;5.318;2022-09-03T03:54:35;4.90;;;1.80;;
18391;SDS011;9322;50.932;5.318;2022-09-03T03:57:01;4.82;;;1.33;;
18391;SDS011;9322;50.932;5.318;2022-09-03T03:59:26;4.23;;;1.60;;
18391;SDS011;9322;50.932;5.318;2022-09-03T04:01:55;3.47;;;1.50;;
18391;SDS011;9322;50.932;5.318;2022-09-03T04:04:21;4.07;;;1.33;;
18391;SDS011;9322;50.932;5.318;2022-09-03T04:06:46;4.95;;;1.58;;
18391;SDS011;9322;50.932;5.318;2022-09-03T04:09:12;7.53;;;1.87;;
18391;SDS011;9322;50.932;5.318;2022-09-03T04:11:38;4.93;;;1.60;;
18391;SDS011;9322;50.932;5.318;2022-09-03T04:14:04;2.97;;;1.80;;
18391;SDS011;9322;50.932;5.318;2022-09-03T04:16:29;4.10;;;1.50;;
18391;SDS011;9322;50.932;5.318;2022-09-03T04:18:56;8.67;;;2.00;;
18391;SDS011;9322;50.932;5.318;2022-09-03T04:21:27;5.90;;;1.63;;
18391;SDS011;9322;50.932;5.318;2022-09-03T04:23:55;8.90;;;1.60;;
18391;SDS011;9322;50.932;5.318;2022-09-03T04:26:28;4.37;;;1.73;;
18391;SDS011;9322;50.932;5.318;2022-09-03T04:28:55;5.30;;;1.47;;
18391;SDS011;9322;50.932;5.318;2022-09-03T04:31:22;2.50;;;1.30;;
18391;SDS011;9322;50.932;5.318;2022-09-03T04:33:47;7.50;;;1.50;;
18391;SDS011;9322;50.932;5.318;2022-09-03T04:38:41;7.10;;;1.60;;
18391;SDS011;9322;50.932;5.318;2022-09-03T04:41:09;4.33;;;1.60;;
18391;SDS011;9322;50.932;5.318;2022-09-03T04:43:36;3.30;;;1.60;;
18391;SDS011;9322;50.932;5.318;2022-09-03T04:46:05;5.80;;;1.90;;
18391;SDS011;9322;50.932;5.318;2022-09-03T04:48:32;5.17;;;1.70;;
18391;SDS011;9322;50.932;5.318;2022-09-03T04:51:05;5.07;;;1.45;;
18391;SDS011;9322;50.932;5.318;2022-09-03T04:53:34;4.63;;;1.80;;
18391;SDS011;9322;50.932;5.318;2022-09-03T04:56:02;4.43;;;1.50;;
18391;SDS011;9322;50.932;5.318;2022-09-03T04:58:35;3.85;;;1.50;;
18391;SDS011;9322;50.932;5.318;2022-09-03T05:01:06;3.87;;;1.80;;
18391;SDS011;9322;50.932;5.318;2022-09-03T05:03:40;4.40;;;1.60;;
18391;SDS011;9322;50.932;5.318;2022-09-03T05:06:05;5.60;;;1.58;;
18391;SDS011;9322;50.932;5.318;2022-09-03T05:08:32;4.03;;;1.52;;
18391;SDS011;9322;50.932;5.318;2022-09-03T05:11:00;15.07;;;1.50;;
18391;SDS011;9322;50.932;5.318;2022-09-03T05:13:30;3.53;;;1.60;;
18391;SDS011;9322;50.932;5.318;2022-09-03T05:16:02;7.20;;;1.77;;
18391;SDS011;9322;50.932;5.318;2022-09-03T05:18:30;3.50;;;1.70;;
18391;SDS011;9322;50.932;5.318;2022-09-03T05:21:03;8.27;;;1.60;;
18391;SDS011;9322;50.932;5.318;2022-09-03T05:23:31;2.47;;;1.60;;
18391;SDS011;9322;50.932;5.318;2022-09-03T05:26:01;5.93;;;2.13;;
18391;SDS011;9322;50.932;5.318;2022-09-03T05:28:33;5.38;;;1.63;;
18391;SDS011;9322;50.932;5.318;2022-09-03T05:31:10;4.22;;;1.90;;
18391;SDS011;9322;50.932;5.318;2022-09-03T05:33:38;8.40;;;2.15;;
18391;SDS011;9322;50.932;5.318;2022-09-03T05:36:09;4.07;;;2.08;;
18391;SDS011;9322;50.932;5.318;2022-09-03T05:38:36;12.68;;;2.10;;
18391;SDS011;9322;50.932;5.318;2022-09-03T05:41:04;3.55;;;1.88;;
18391;SDS011;9322;50.932;5.318;2022-09-03T05:43:31;5.97;;;2.10;;
18391;SDS011;9322;50.932;5.318;2022-09-03T05:46:02;5.03;;;1.70;;
18391;SDS011;9322;50.932;5.318;2022-09-03T05:48:31;6.70;;;1.70;;
18391;SDS011;9322;50.932;5.318;2022-09-03T05:51:05;3.95;;;1.80;;
18391;SDS011;9322;50.932;5.318;2022-09-03T05:53:36;5.35;;;2.15;;
18391;SDS011;9322;50.932;5.318;2022-09-03T05:56:04;5.00;;;2.05;;
18391;SDS011;9322;50.932;5.318;2022-09-03T05:58:32;7.50;;;2.00;;
18391;SDS011;9322;50.932;5.318;2022-09-03T06:00:59;6.15;;;2.10;;
18391;SDS011;9322;50.932;5.318;2022-09-03T06:03:33;3.20;;;1.83;;
18391;SDS011;9322;50.932;5.318;2022-09-03T06:05:59;6.47;;;2.10;;
18391;SDS011;9322;50.932;5.318;2022-09-03T06:08:24;6.72;;;2.08;;
18391;SDS011;9322;50.932;5.318;2022-09-03T06:10:56;8.90;;;2.00;;
18391;SDS011;9322;50.932;5.318;2022-09-03T06:13:22;5.93;;;1.90;;
18391;SDS011;9322;50.932;5.318;2022-09-03T06:15:48;5.72;;;1.88;;
18391;SDS011;9322;50.932;5.318;2022-09-03T06:18:13;2.92;;;1.60;;
18391;SDS011;9322;50.932;5.318;2022-09-03T06:20:39;6.47;;;1.85;;
18391;SDS011;9322;50.932;5.318;2022-09-03T06:23:05;7.38;;;1.75;;
18391;SDS011;9322;50.932;5.318;2022-09-03T06:25:30;6.30;;;1.67;;
18391;SDS011;9322;50.932;5.318;2022-09-03T06:27:56;7.75;;;2.05;;
18391;SDS011;9322;50.932;5.318;2022-09-03T06:30:23;5.05;;;1.88;;
18391;SDS011;9322;50.932;5.318;2022-09-03T06:32:50;7.32;;;2.08;;
18391;SDS011;9322;50.932;5.318;2022-09-03T06:35:16;12.65;;;2.80;;
18391;SDS011;9322;50.932;5.318;2022-09-03T06:37:42;7.43;;;2.30;;
18391;SDS011;9322;50.932;5.318;2022-09-03T06:40:09;10.27;;;2.00;;
18391;SDS011;9322;50.932;5.318;2022-09-03T06:42:40;5.00;;;2.17;;
18391;SDS011;9322;50.932;5.318;2022-09-03T06:45:07;7.40;;;2.58;;
18391;SDS011;9322;50.932;5.318;2022-09-03T06:47:34;6.72;;;2.25;;
18391;SDS011;9322;50.932;5.318;2022-09-03T06:49:59;10.07;;;2.35;;
18391;SDS011;9322;50.932;5.318;2022-09-03T06:52:26;9.05;;;2.30;;
18391;SDS011;9322;50.932;5.318;2022-09-03T06:54:52;6.57;;;1.98;;
18391;SDS011;9322;50.932;5.318;2022-09-03T06:57:18;9.65;;;2.08;;
18391;SDS011;9322;50.932;5.318;2022-09-03T06:59:44;8.77;;;2.03;;
18391;SDS011;9322;50.932;5.318;2022-09-03T07:02:10;7.00;;;2.10;;
18391;SDS011;9322;50.932;5.318;2022-09-03T07:04:35;4.82;;;1.98;;
18391;SDS011;9322;50.932;5.318;2022-09-03T07:07:01;14.05;;;2.25;;
18391;SDS011;9322;50.932;5.318;2022-09-03T07:09:27;13.57;;;2.33;;
18391;SDS011;9322;50.932;5.318;2022-09-03T07:11:53;9.57;;;2.50;;
18391;SDS011;9322;50.932;5.318;2022-09-03T07:14:19;13.25;;;2.05;;
18391;SDS011;9322;50.932;5.318;2022-09-03T07:16:46;7.78;;;2.10;;
18391;SDS011;9322;50.932;5.318;2022-09-03T07:19:13;7.05;;;2.17;;
18391;SDS011;9322;50.932;5.318;2022-09-03T07:21:39;7.50;;;1.80;;
18391;SDS011;9322;50.932;5.318;2022-09-03T07:24:06;9.30;;;2.10;;
18391;SDS011;9322;50.932;5.318;2022-09-03T07:26:34;9.93;;;1.85;;
18391;SDS011;9322;50.932;5.318;2022-09-03T07:29:02;2.65;;;1.90;;
18391;SDS011;9322;50.932;5.318;2022-09-03T07:31:29;3.40;;;1.65;;
18391;SDS011;9322;50.932;5.318;2022-09-03T07:33:56;9.80;;;1.98;;
18391;SDS011;9322;50.932;5.318;2022-09-03T07:36:24;5.68;;;1.98;;
18391;SDS011;9322;50.932;5.318;2022-09-03T07:38:55;2.80;;;1.50;;
18391;SDS011;9322;50.932;5.318;2022-09-03T07:41:23;4.82;;;1.90;;
18391;SDS011;9322;50.932;5.318;2022-09-03T07:43:51;2.45;;;1.63;;
18391;SDS011;9322;50.932;5.318;2022-09-03T07:46:18;3.45;;;1.70;;
18391;SDS011;9322;50.932;5.318;2022-09-03T07:48:50;3.28;;;1.90;;
18391;SDS011;9322;50.932;5.318;2022-09-03T07:51:17;5.03;;;1.80;;
18391;SDS011;9322;50.932;5.318;2022-09-03T07:53:46;4.43;;;1.77;;
18391;SDS011;9322;50.932;5.318;2022-09-03T07:56:12;3.45;;;1.90;;
18391;SDS011;9322;50.932;5.318;2022-09-03T07:58:38;5.75;;;2.08;;
18391;SDS011;9322;50.932;5.318;2022-09-03T08:01:08;7.85;;;2.03;;
18391;SDS011;9322;50.932;5.318;2022-09-03T08:03:36;10.63;;;2.00;;
18391;SDS011;9322;50.932;5.318;2022-09-03T08:06:06;3.13;;;1.75;;
18391;SDS011;9322;50.932;5.318;2022-09-03T08:08:32;7.22;;;2.10;;
18391;SDS011;9322;50.932;5.318;2022-09-03T08:11:04;8.88;;;2.30;;
18391;SDS011;9322;50.932;5.318;2022-09-03T08:13:36;6.80;;;2.63;;
18391;SDS011;9322;50.932;5.318;2022-09-03T08:16:13;6.68;;;2.28;;
18391;SDS011;9322;50.932;5.318;2022-09-03T08:18:40;8.30;;;2.13;;
18391;SDS011;9322;50.932;5.318;2022-09-03T08:21:09;4.93;;;2.10;;
18391;SDS011;9322;50.932;5.318;2022-09-03T08:23:43;9.15;;;2.17;;
18391;SDS011;9322;50.932;5.318;2022-09-03T08:26:10;12.52;;;2.45;;
18391;SDS011;9322;50.932;5.318;2022-09-03T08:28:37;7.07;;;2.00;;
18391;SDS011;9322;50.932;5.318;2022-09-03T08:33:40;8.75;;;2.33;;
18391;SDS011;9322;50.932;5.318;2022-09-03T08:36:10;9.20;;;2.33;;
18391;SDS011;9322;50.932;5.318;2022-09-03T08:38:37;6.03;;;2.17;;
18391;SDS011;9322;50.932;5.318;2022-09-03T08:41:11;2.45;;;2.13;;
18391;SDS011;9322;50.932;5.318;2022-09-03T08:49:11;4.47;;;2.05;;
18391;SDS011;9322;50.932;5.318;2022-09-03T08:51:40;7.75;;;2.10;;
18391;SDS011;9322;50.932;5.318;2022-09-03T08:54:08;3.58;;;2.50;;
18391;SDS011;9322;50.932;5.318;2022-09-03T08:56:37;4.65;;;2.03;;
18391;SDS011;9322;50.932;5.318;2022-09-03T08:59:05;2.58;;;2.25;;
18391;SDS011;9322;50.932;5.318;2022-09-03T09:01:42;5.82;;;2.30;;
18391;SDS011;9322;50.932;5.318;2022-09-03T09:04:37;6.90;;;2.60;;
18391;SDS011;9322;50.932;5.318;2022-09-03T09:07:15;3.83;;;2.30;;
18391;SDS011;9322;50.932;5.318;2022-09-03T09:10:02;4.10;;;2.17;;
18391;SDS011;9322;50.932;5.318;2022-09-03T09:12:40;4.13;;;2.10;;
18391;SDS011;9322;50.932;5.318;2022-09-03T09:21:06;5.00;;;2.40;;
18391;SDS011;9322;50.932;5.318;2022-09-03T09:23:43;3.05;;;1.70;;
18391;SDS011;9322;50.932;5.318;2022-09-03T09:26:12;5.63;;;1.92;;
18391;SDS011;9322;50.932;5.318;2022-09-03T09:28:41;5.57;;;2.08;;
18391;SDS011;9322;50.932;5.318;2022-09-03T09:31:10;3.03;;;2.00;;
18391;SDS011;9322;50.932;5.318;2022-09-03T09:33:40;6.60;;;2.38;;
18391;SDS011;9322;50.932;5.318;2022-09-03T09:36:07;4.13;;;2.28;;
18391;SDS011;9322;50.932;5.318;2022-09-03T09:38:37;2.97;;;2.15;;
18391;SDS011;9322;50.932;5.318;2022-09-03T09:41:07;2.20;;;2.00;;
18391;SDS011;9322;50.932;5.318;2022-09-03T09:43:33;4.05;;;2.20;;
18391;SDS011;9322;50.932;5.318;2022-09-03T09:46:04;5.15;;;2.00;;
18391;SDS011;9322;50.932;5.318;2022-09-03T09:48:36;4.43;;;2.10;;
18391;SDS011;9322;50.932;5.318;2022-09-03T09:51:09;3.42;;;2.20;;
18391;SDS011;9322;50.932;5.318;2022-09-03T09:53:37;2.72;;;2.20;;
18391;SDS011;9322;50.932;5.318;2022-09-03T09:56:03;4.03;;;2.08;;
18391;SDS011;9322;50.932;5.318;2022-09-03T09:58:30;4.97;;;2.50;;
18391;SDS011;9322;50.932;5.318;2022-09-03T10:01:02;3.40;;;2.10;;
18391;SDS011;9322;50.932;5.318;2022-09-03T10:03:39;2.83;;;2.00;;
18391;SDS011;9322;50.932;5.318;2022-09-03T10:06:13;5.38;;;2.22;;
18391;SDS011;9322;50.932;5.318;2022-09-03T10:09:10;3.47;;;2.45;;
18391;SDS011;9322;50.932;5.318;2022-09-03T10:11:36;3.80;;;2.30;;
18391;SDS011;9322;50.932;5.318;2022-09-03T10:14:14;2.15;;;1.98;;
18391;SDS011;9322;50.932;5.318;2022-09-03T10:16:44;4.90;;;1.98;;
18391;SDS011;9322;50.932;5.318;2022-09-03T10:19:15;4.50;;;2.20;;
18391;SDS011;9322;50.932;5.318;2022-09-03T10:24:55;2.45;;;2.25;;
18391;SDS011;9322;50.932;5.318;2022-09-03T10:27:24;4.88;;;2.35;;
18391;SDS011;9322;50.932;5.318;2022-09-03T10:29:50;3.55;;;1.90;;
18391;SDS011;9322;50.932;5.318;2022-09-03T10:37:54;2.47;;;1.80;;
18391;SDS011;9322;50.932;5.318;2022-09-03T10:46:28;2.42;;;2.00;;
18391;SDS011;9322;50.932;5.318;2022-09-03T10:52:02;2.47;;;1.90;;
18391;SDS011;9322;50.932;5.318;2022-09-03T10:54:50;6.65;;;2.00;;
18391;SDS011;9322;50.932;5.318;2022-09-03T11:00:57;4.90;;;2.30;;
18391;SDS011;9322;50.932;5.318;2022-09-03T11:06:14;8.40;;;2.25;;
18391;SDS011;9322;50.932;5.318;2022-09-03T11:09:10;5.43;;;2.20;;
18391;SDS011;9322;50.932;5.318;2022-09-03T11:11:50;3.53;;;1.92;;
18391;SDS011;9322;50.932;5.318;2022-09-03T11:14:29;3.80;;;1.90;;
18391;SDS011;9322;50.932;5.318;2022-09-03T11:17:06;2.70;;;2.30;;
18391;SDS011;9322;50.932;5.318;2022-09-03T11:19:38;3.42;;;2.05;;
18391;SDS011;9322;50.932;5.318;2022-09-03T11:22:15;3.38;;;2.50;;
18391;SDS011;9322;50.932;5.318;2022-09-03T11:24:43;6.20;;;2.22;;
18391;SDS011;9322;50.932;5.318;2022-09-03T11:29:59;4.22;;;2.42;;
18391;SDS011;9322;50.932;5.318;2022-09-03T11:32:46;3.47;;;2.03;;
18391;SDS011;9322;50.932;5.318;2022-09-03T11:35:27;5.75;;;2.53;;
18391;SDS011;9322;50.932;5.318;2022-09-03T11:37:59;3.60;;;2.58;;
18391;SDS011;9322;50.932;5.318;2022-09-03T11:40:33;3.78;;;2.55;;
18391;SDS011;9322;50.932;5.318;2022-09-03T11:45:37;3.47;;;2.47;;
18391;SDS011;9322;50.932;5.318;2022-09-03T11:48:27;4.72;;;2.10;;
18391;SDS011;9322;50.932;5.318;2022-09-03T11:53:51;5.72;;;2.90;;
18391;SDS011;9322;50.932;5.318;2022-09-03T11:56:18;4.90;;;2.53;;
18391;SDS011;9322;50.932;5.318;2022-09-03T11:58:44;6.28;;;2.65;;
18391;SDS011;9322;50.932;5.318;2022-09-03T12:01:11;2.40;;;2.20;;
18391;SDS011;9322;50.932;5.318;2022-09-03T12:14:06;4.93;;;2.40;;
18391;SDS011;9322;50.932;5.318;2022-09-03T12:19:10;6.63;;;2.85;;
18391;SDS011;9322;50.932;5.318;2022-09-03T12:21:48;4.13;;;2.50;;
18391;SDS011;9322;50.932;5.318;2022-09-03T12:24:14;4.72;;;2.67;;
18391;SDS011;9322;50.932;5.318;2022-09-03T12:26:41;4.35;;;2.67;;
18391;SDS011;9322;50.932;5.318;2022-09-03T12:29:18;11.77;;;3.55;;
18391;SDS011;9322;50.932;5.318;2022-09-03T12:31:49;11.38;;;2.90;;
18391;SDS011;9322;50.932;5.318;2022-09-03T12:34:16;10.73;;;3.05;;
18391;SDS011;9322;50.932;5.318;2022-09-03T12:36:45;5.45;;;2.45;;
18391;SDS011;9322;50.932;5.318;2022-09-03T12:42:02;5.43;;;2.97;;
18391;SDS011;9322;50.932;5.318;2022-09-03T12:47:05;8.45;;;2.70;;
18391;SDS011;9322;50.932;5.318;2022-09-03T12:49:40;12.68;;;2.80;;
18391;SDS011;9322;50.932;5.318;2022-09-03T12:54:34;5.63;;;2.85;;
18391;SDS011;9322;50.932;5.318;2022-09-03T12:57:09;5.60;;;2.50;;
18391;SDS011;9322;50.932;5.318;2022-09-03T12:59:39;8.25;;;2.95;;
18391;SDS011;9322;50.932;5.318;2022-09-03T13:02:11;5.38;;;2.40;;
18391;SDS011;9322;50.932;5.318;2022-09-03T13:04:48;6.20;;;2.92;;
18391;SDS011;9322;50.932;5.318;2022-09-03T13:07:20;5.72;;;2.47;;
18391;SDS011;9322;50.932;5.318;2022-09-03T13:10:05;4.60;;;2.58;;
18391;SDS011;9322;50.932;5.318;2022-09-03T13:12:45;8.10;;;2.85;;
18391;SDS011;9322;50.932;5.318;2022-09-03T13:15:23;7.38;;;2.70;;
18391;SDS011;9322;50.932;5.318;2022-09-03T13:23:55;2.30;;;2.10;;
18391;SDS011;9322;50.932;5.318;2022-09-03T13:27:01;2.63;;;2.13;;
18391;SDS011;9322;50.932;5.318;2022-09-03T13:38:06;2.65;;;2.20;;
18391;SDS011;9322;50.932;5.318;2022-09-03T13:40:55;2.92;;;2.03;;
18391;SDS011;9322;50.932;5.318;2022-09-03T13:49:55;3.17;;;2.20;;
18391;SDS011;9322;50.932;5.318;2022-09-03T13:55:11;3.97;;;2.00;;
18391;SDS011;9322;50.932;5.318;2022-09-03T14:00:46;4.28;;;2.17;;
18391;SDS011;9322;50.932;5.318;2022-09-03T14:09:03;3.70;;;2.00;;
18391;SDS011;9322;50.932;5.318;2022-09-03T14:17:22;6.25;;;2.90;;
18391;SDS011;9322;50.932;5.318;2022-09-03T14:19:59;4.10;;;2.85;;
18391;SDS011;9322;50.932;5.318;2022-09-03T14:25:08;7.93;;;2.92;;
18391;SDS011;9322;50.932;5.318;2022-09-03T14:27:38;6.55;;;2.70;;
18391;SDS011;9322;50.932;5.318;2022-09-03T14:30:05;7.68;;;3.05;;
18391;SDS011;9322;50.932;5.318;2022-09-03T14:35:17;4.20;;;2.88;;
18391;SDS011;9322;50.932;5.318;2022-09-03T14:38:39;5.63;;;2.85;;
18391;SDS011;9322;50.932;5.318;2022-09-03T14:54:29;3.28;;;2.97;;
18391;SDS011;9322;50.932;5.318;2022-09-03T15:02:27;7.30;;;2.80;;
18391;SDS011;9322;50.932;5.318;2022-09-03T15:07:52;3.10;;;2.80;;
18391;SDS011;9322;50.932;5.318;2022-09-03T15:10:30;3.83;;;2.75;;
18391;SDS011;9322;50.932;5.318;2022-09-03T15:13:13;4.10;;;3.20;;
18391;SDS011;9322;50.932;5.318;2022-09-03T15:19:16;4.18;;;3.13;;
18391;SDS011;9322;50.932;5.318;2022-09-03T15:24:20;3.88;;;2.75;;
18391;SDS011;9322;50.932;5.318;2022-09-03T15:26:59;4.32;;;2.90;;
18391;SDS011;9322;50.932;5.318;2022-09-03T15:29:59;4.90;;;2.90;;
18391;SDS011;9322;50.932;5.318;2022-09-03T15:35:07;7.32;;;2.60;;
18391;SDS011;9322;50.932;5.318;2022-09-03T15:42:50;3.40;;;2.47;;
18391;SDS011;9322;50.932;5.318;2022-09-03T15:45:32;5.07;;;2.70;;
18391;SDS011;9322;50.932;5.318;2022-09-03T15:48:06;5.47;;;2.83;;
18391;SDS011;9322;50.932;5.318;2022-09-03T15:50:52;3.63;;;2.67;;
18391;SDS011;9322;50.932;5.318;2022-09-03T15:53:34;5.95;;;2.40;;
18391;SDS011;9322;50.932;5.318;2022-09-03T15:56:27;3.63;;;2.30;;
18391;SDS011;9322;50.932;5.318;2022-09-03T16:02:06;9.10;;;2.75;;
18391;SDS011;9322;50.932;5.318;2022-09-03T16:10:17;2.42;;;2.10;;
18391;SDS011;9322;50.932;5.318;2022-09-03T16:18:39;4.07;;;2.53;;
18391;SDS011;9322;50.932;5.318;2022-09-03T16:24:37;7.00;;;2.50;;
18391;SDS011;9322;50.932;5.318;2022-09-03T16:27:19;3.58;;;2.33;;
18391;SDS011;9322;50.932;5.318;2022-09-03T16:30:32;7.18;;;2.45;;
18391;SDS011;9322;50.932;5.318;2022-09-03T16:33:20;4.32;;;2.40;;
18391;SDS011;9322;50.932;5.318;2022-09-03T16:38:29;3.42;;;2.13;;
18391;SDS011;9322;50.932;5.318;2022-09-03T16:41:18;4.32;;;2.22;;
18391;SDS011;9322;50.932;5.318;2022-09-03T17:02:37;4.95;;;2.20;;
18391;SDS011;9322;50.932;5.318;2022-09-03T17:05:35;2.88;;;2.10;;
18391;SDS011;9322;50.932;5.318;2022-09-03T17:10:42;2.42;;;2.00;;
18391;SDS011;9322;50.932;5.318;2022-09-03T17:24:16;3.85;;;1.90;;
18391;SDS011;9322;50.932;5.318;2022-09-03T17:27:10;2.03;;;1.80;;
18391;SDS011;9322;50.932;5.318;2022-09-03T17:44:16;6.10;;;1.92;;
18391;SDS011;9322;50.932;5.318;2022-09-03T17:46:40;4.07;;;2.03;;
18391;SDS011;9322;50.932;5.318;2022-09-03T17:49:22;3.92;;;1.83;;
18391;SDS011;9322;50.932;5.318;2022-09-03T17:52:05;2.72;;;1.75;;
18391;SDS011;9322;50.932;5.318;2022-09-03T17:54:42;3.38;;;2.05;;
18391;SDS011;9322;50.932;5.318;2022-09-03T18:02:29;4.72;;;1.90;;
18391;SDS011;9322;50.932;5.318;2022-09-03T18:05:16;3.13;;;2.00;;
18391;SDS011;9322;50.932;5.318;2022-09-03T18:10:29;8.20;;;2.17;;
18391;SDS011;9322;50.932;5.318;2022-09-03T18:13:59;6.63;;;2.75;;
18391;SDS011;9322;50.932;5.318;2022-09-03T18:16:25;7.80;;;2.30;;
18391;SDS011;9322;50.932;5.318;2022-09-03T18:18:57;3.78;;;2.20;;
18391;SDS011;9322;50.932;5.318;2022-09-03T18:21:42;5.00;;;1.98;;
18391;SDS011;9322;50.932;5.318;2022-09-03T18:24:42;4.55;;;2.35;;
18391;SDS011;9322;50.932;5.318;2022-09-03T18:27:32;7.70;;;2.47;;
18391;SDS011;9322;50.932;5.318;2022-09-03T18:30:22;6.28;;;2.38;;
18391;SDS011;9322;50.932;5.318;2022-09-03T18:33:07;4.35;;;2.60;;
18391;SDS011;9322;50.932;5.318;2022-09-03T18:35:51;4.60;;;2.33;;
18391;SDS011;9322;50.932;5.318;2022-09-03T18:38:37;5.97;;;2.50;;
18391;SDS011;9322;50.932;5.318;2022-09-03T18:53:24;6.82;;;2.40;;
18391;SDS011;9322;50.932;5.318;2022-09-03T19:09:14;12.30;;;2.47;;
18391;SDS011;9322;50.932;5.318;2022-09-03T19:14:59;7.00;;;2.35;;
18391;SDS011;9322;50.932;5.318;2022-09-03T19:20:35;6.63;;;2.30;;
18391;SDS011;9322;50.932;5.318;2022-09-03T19:23:21;6.30;;;2.35;;
18391;SDS011;9322;50.932;5.318;2022-09-03T19:26:10;6.32;;;2.38;;
18391;SDS011;9322;50.932;5.318;2022-09-03T19:29:06;7.53;;;2.80;;
18391;SDS011;9322;50.932;5.318;2022-09-03T19:32:03;3.97;;;2.30;;
18391;SDS011;9322;50.932;5.318;2022-09-03T19:41:07;9.40;;;2.50;;
18391;SDS011;9322;50.932;5.318;2022-09-03T19:44:12;6.60;;;2.78;;
18391;SDS011;9322;50.932;5.318;2022-09-03T19:47:02;12.90;;;2.60;;
18391;SDS011;9322;50.932;5.318;2022-09-03T19:55:30;7.03;;;2.80;;
18391;SDS011;9322;50.932;5.318;2022-09-03T19:58:19;5.45;;;2.67;;
18391;SDS011;9322;50.932;5.318;2022-09-03T20:01:06;7.75;;;3.00;;
18391;SDS011;9322;50.932;5.318;2022-09-03T20:03:51;8.50;;;3.10;;
18391;SDS011;9322;50.932;5.318;2022-09-03T20:06:38;8.75;;;2.80;;
18391;SDS011;9322;50.932;5.318;2022-09-03T20:09:28;9.02;;;2.90;;
18391;SDS011;9322;50.932;5.318;2022-09-03T20:12:16;8.35;;;2.90;;
18391;SDS011;9322;50.932;5.318;2022-09-03T20:14:46;5.75;;;2.92;;
18391;SDS011;9322;50.932;5.318;2022-09-03T20:17:14;4.00;;;2.78;;
18391;SDS011;9322;50.932;5.318;2022-09-03T20:19:52;9.48;;;2.90;;
18391;SDS011;9322;50.932;5.318;2022-09-03T20:24:54;7.22;;;3.20;;
18391;SDS011;9322;50.932;5.318;2022-09-03T20:27:29;5.88;;;2.72;;
18391;SDS011;9322;50.932;5.318;2022-09-03T20:30:22;6.38;;;2.92;;
18391;SDS011;9322;50.932;5.318;2022-09-03T20:52:44;6.60;;;2.58;;
18391;SDS011;9322;50.932;5.318;2022-09-03T20:55:28;7.82;;;2.55;;
18391;SDS011;9322;50.932;5.318;2022-09-03T21:01:11;3.58;;;2.50;;
18391;SDS011;9322;50.932;5.318;2022-09-03T21:09:04;4.20;;;2.28;;
18391;SDS011;9322;50.932;5.318;2022-09-03T21:14:19;6.43;;;2.40;;
18391;SDS011;9322;50.932;5.318;2022-09-03T21:25:25;3.33;;;2.35;;
18391;SDS011;9322;50.932;5.318;2022-09-03T21:28:14;4.25;;;2.38;;
18391;SDS011;9322;50.932;5.318;2022-09-03T21:30:53;5.95;;;2.60;;